x

Port Orford - 15 Nm West Of Port Orford, Or (46015) Weather Station

4:50pm - Tue 21st Feb 2017 All times are PST. -8 hours from GMT.

  • Wind
    4mph, 7mph gusts
  • Sea Temp 52°f
  • Air Temp 48°f
  • Sea Pressure 1021.4mb
  • Port Orford - 15 Nm West Of Port Orford, Or
  • Port Orford - 15 Nm West Of Port Orford, Or

More Historic Weather Station data

Upgrade to MSW Pro to gain access to the past 30 days of data for over 8000 Wavebouys and Weather Stations around the globe.

Join Pro

Comparision Forecast

View Surf forecast
   
Tue 02/21 4:50pm  -   -   -  4 7 mph 1021.4mb 52f 48f
3:50pm  -   -   -  4 7 mph 1021.4mb 52f 47f
2:50pm  -   -   -  2 4 mph 1020.7mb 52f 47f
1:50pm  -   -   -  11 13 mph 1019.9mb 52f 47f
12:50pm  -   -   -  13 20 mph 1019.1mb 52f 49f
11:50am  -   -   -  16 20 mph 1018.1mb 52f 50f
10:50am  -   -   -  13 18 mph 1016.8mb 52f 50f
9:50am  -   -   -  18 22 mph 1015.5mb 52f 51f
8:50am  -   -   -  16 20 mph 1014.7mb 52f 51f
7:50am  -   -   -  16 18 mph 1013.8mb 52f 50f
6:50am  -   -   -  13 20 mph 1012.9mb 52f 48f
5:50am  -   -   -  13 16 mph 1011.7mb 52f 48f
4:50am  -   -   -  18 22 mph 1009.9mb 52f 48f
3:50am  -   -   -  11 16 mph 1007.6mb 52f 48f
2:50am  -   -   -  13 18 mph 1004.7mb 52f 48f
1:50am 9.5ft 12s 9s 11 13 mph 1003.1mb 52f 49f
12:50am 9.5ft 11s 8s 7 11 mph 1002.9mb 52f 48f
Mon 02/20 11:50pm 10ft 12s 8s 9 11 mph 1002.6mb 52f 48f
10:50pm 10ft 13s 8s 11 16 mph 1002mb 52f 49f
9:50pm 10.5ft 13s 8s 11 13 mph 1002.2mb 52f 49f
8:50pm 10.5ft 12s 8s 9 11 mph 1002.4mb 52f 50f
7:50pm 11.5ft 14s 8s 9 13 mph 1002.7mb 52f 50f
6:50pm 12ft 12s 8s 18 22 mph 1003.2mb 52f 51f
5:50pm 11ft 14s 8s  -  2 mph 1003.7mb 52f 50f
4:50pm 12.5ft 14s 9s 9 11 mph 1004.3mb 52f 51f
3:50pm 11.5ft 14s 8s 9 11 mph 1004.6mb 52f 51f
2:50pm 12ft 13s 8s 11 13 mph 1005.2mb 52f 51f
1:50pm 12.5ft 10s 8s 13 18 mph 1005.7mb 52f 51f
12:50pm 14ft 10s 9s 13 16 mph 1006.6mb 52f 50f
11:50am 14.5ft 11s 8s 13 18 mph 1007.1mb 52f 50f
10:50am  -   -   -  13 18 mph 1006.9mb 52f 49f
9:50am  -   -   -  11 16 mph 1006.3mb 52f 48f
8:50am  -   -   -  9 13 mph 1005.2mb 52f 49f
7:50am  -   -   -  16 22 mph 1002.3mb 52f 48f
6:50am  -   -   -  18 27 mph 996.6mb 52f 49f
5:50am  -   -   -  31 36 mph 992.2mb 52f 52f
4:50am 17.5ft 16s 8s 27 43 mph 991.9mb 52f 55f
3:50am 17.5ft 15s 8s 25 31 mph 992.3mb 52f 55f
2:50am 15.5ft 15s 9s 27 34 mph 993.3mb 52f 54f
1:50am 15.5ft 16s 11s 20 27 mph 996.2mb 52f 51f
12:50am 15ft 16s 11s 11 16 mph 997.5mb 52f 50f
Sun 02/19 11:50pm 14ft 16s 10s 9 16 mph 999.8mb 52f 49f
10:50pm 12.5ft 17s 9s 13 18 mph 1000.9mb 52f 50f
9:50pm 13ft 17s 9s 20 25 mph 1002mb 52f 51f
8:50pm 12ft 17s 9s 16 20 mph 1002.2mb 52f 51f
7:50pm 12ft 17s 8s 22 29 mph 1002.3mb 52f 50f
6:50pm 11.5ft 10s 8s 22 27 mph 1002.3mb 52f 51f
5:50pm 10.5ft 8s 7s 16 18 mph 1002.8mb 52f 52f
4:50pm 10.5ft 12s 7s 16 20 mph 1002.8mb 52f 52f
3:50pm 10ft 11s 7s 18 22 mph 1002.8mb 52f 52f
2:50pm 11ft 11s 7s 18 22 mph 1002.7mb 52f 52f
1:50pm 10.5ft 11s 7s 18 22 mph 1002.5mb 52f 52f
12:50pm 10ft 7s 7s 20 27 mph 1002.4mb 52f 51f
11:50am 10ft 8s 7s 25 29 mph 1002.2mb 52f 52f
10:50am 10.5ft 8s 7s 22 27 mph 1001.8mb 52f 52f
9:50am 10ft 8s 7s 22 29 mph 1001.3mb 52f 51f
8:50am 11ft 8s 7s 22 27 mph 1000.8mb 52f 51f
7:50am 11ft 8s 7s 22 27 mph 1000.2mb 52f 51f
6:50am 10.5ft 8s 7s 20 25 mph 999.3mb 52f 50f
5:50am 10.5ft 8s 6s 25 29 mph 998.8mb 52f 50f
4:50am 10ft 8s 6s 27 34 mph 998.2mb 52f 51f
3:50am 10.5ft 8s 7s 29 36 mph 997.8mb 52f 50f
2:50am 11.5ft 8s 7s 25 29 mph 997.9mb 52f 51f
1:50am 12ft 8s 7s 20 29 mph 996.8mb 52f 49f
12:50am 11ft 8s 6s 29 38 mph 997mb 52f 50f
Sat 02/18 11:50pm 11.5ft 7s 6s 29 36 mph 997.3mb 52f 49f
10:50pm 11ft 6s 6s 34 43 mph 997.7mb 52f 49f
9:50pm  -   -   -  36 45 mph 997.5mb 52f 49f
8:50pm  -   -   -  36 43 mph 997.6mb 52f 49f
7:50pm  -   -   -  31 36 mph 998.4mb 52f 47f
6:50pm  -   -   -  27 34 mph 999.4mb 52f 47f
5:50pm  -   -   -  25 31 mph 999.6mb 52f 48f
4:50pm  -   -   -  18 22 mph 1000mb 52f 49f
3:50pm  -   -   -  13 18 mph 1000.4mb 52f 49f
2:50pm 8ft 11s 7s 11 16 mph 1000.7mb 52f 47f
1:50pm 8ft 8s 7s 7 11 mph 1001.2mb 52f 48f
12:50pm 8ft 13s 7s 4 7 mph 1001.6mb 52f 49f
11:50am 9ft 11s 7s 4 7 mph 1002.1mb 52f 49f
10:50am 8.5ft 11s 7s 9 11 mph 1002mb 52f 48f
9:50am 9ft 13s 7s 7 9 mph 1002mb 52f 46f
8:50am 9ft 13s 7s 16 18 mph 1001.3mb 52f 49f
7:50am 9ft 8s 7s 13 18 mph 1000.6mb 52f 50f
6:50am 9.5ft 8s 7s 18 22 mph 999.9mb 52f 50f
5:50am 11ft 8s 7s 20 25 mph 999.5mb 52f 50f
4:50am 10ft 7s 7s 20 25 mph 999.1mb 52f 50f
3:50am 10ft 12s 7s 22 27 mph 998.4mb 52f 49f
2:50am 10ft 9s 7s 22 27 mph 997.6mb 52f 50f